Terminal Aerodrome Forecast
Issued by NWS Sioux Falls, SD

Home | Current Version | Previous Version | Graphics & Text | Print | Product List | Glossary On
Versions: 1 2 3 4 5 6 7 8 9 10 11 12 13 14 15
000
FTUS43 KFSD 261100
TAFHON
TAF
KHON 261131Z 2612/2712 VRB05KT P6SM BKN120
      TEMPO 2612/2614 VRB15KT 6SM TSRA BKN110CB
     FM261500 24008KT P6SM SCT120
     FM261800 28010KT P6SM SCT040
     FM262200 30013G21KT P6SM SKC
     FM270200 31009KT P6SM SKC=

USA.gov is the U.S. government's official web portal to all federal, state and local government web resources and services.